createdAt,value
2023-03-31T00:00:30.412Z,10.40
2023-03-31T00:02:58.792Z,10.53
2023-03-31T00:05:26.336Z,10.37
2023-03-31T00:07:55.147Z,10.37
2023-03-31T00:10:23.966Z,10.39
2023-03-31T00:12:51.439Z,10.15
2023-03-31T00:15:18.894Z,9.87
2023-03-31T00:17:47.228Z,9.84
2023-03-31T00:20:14.858Z,9.85
2023-03-31T00:22:46.774Z,10.15
2023-03-31T00:25:14.746Z,10.09
2023-03-31T00:27:45.121Z,10.09
2023-03-31T00:30:14.542Z,10.13
2023-03-31T00:32:42.143Z,9.52
2023-03-31T00:35:10.406Z,8.86
2023-03-31T00:37:38.635Z,8.84
2023-03-31T00:40:09.770Z,8.84
2023-03-31T00:42:41.065Z,8.90
2023-03-31T00:45:32.136Z,8.84
2023-03-31T00:48:10.093Z,8.97
2023-03-31T00:50:45.980Z,8.74
2023-03-31T00:53:18.713Z,8.64
2023-03-31T00:55:49.822Z,8.92
2023-03-31T00:58:21.040Z,8.74
2023-03-31T01:00:52.842Z,8.89
2023-03-31T01:03:22.523Z,9.00
2023-03-31T01:05:53.287Z,9.02
2023-03-31T01:08:25.755Z,9.31
2023-03-31T01:10:55.802Z,9.35
2023-03-31T01:13:25.928Z,9.54
2023-03-31T01:15:55.146Z,9.20
2023-03-31T01:18:23.097Z,9.22
2023-03-31T01:21:18.961Z,9.05
2023-03-31T01:24:11.128Z,9.37
2023-03-31T01:26:57.308Z,9.33
2023-03-31T01:29:57.130Z,9.71
2023-03-31T01:33:11.740Z,9.63
2023-03-31T01:35:59.345Z,9.71
2023-03-31T01:39:02.578Z,9.67
2023-03-31T01:41:40.325Z,9.49
2023-03-31T01:44:18.537Z,9.05
2023-03-31T01:46:54.418Z,9.19
2023-03-31T01:49:28.466Z,9.35
2023-03-31T01:52:01.926Z,8.89
2023-03-31T01:54:39.217Z,9.10
2023-03-31T01:57:14.776Z,9.35
2023-03-31T01:59:50.931Z,9.13
2023-03-31T02:02:22.950Z,9.07
2023-03-31T02:04:54.332Z,9.10
2023-03-31T02:07:28.045Z,9.24
2023-03-31T02:10:00.293Z,9.13
2023-03-31T02:12:32.686Z,9.17
2023-03-31T02:15:02.318Z,9.26
2023-03-31T02:17:32.574Z,9.15
2023-03-31T02:20:11.453Z,9.46
2023-03-31T02:22:43.637Z,9.27
2023-03-31T02:25:15.387Z,9.26
2023-03-31T02:27:48.581Z,9.25
2023-03-31T02:30:16.194Z,9.21
2023-03-31T02:32:46.607Z,9.41
2023-03-31T02:35:18.362Z,9.29
2023-03-31T02:37:46.733Z,9.88
2023-03-31T02:40:18.117Z,10.17
2023-03-31T02:42:47.060Z,10.27
2023-03-31T02:45:46.058Z,10.36
2023-03-31T02:48:18.677Z,10.87
2023-03-31T02:51:01.748Z,11.05
2023-03-31T02:53:44.098Z,11.26
2023-03-31T02:56:28.364Z,11.32
2023-03-31T02:59:12.243Z,11.03
2023-03-31T03:01:51.251Z,10.96
2023-03-31T03:04:37.129Z,11.24
2023-03-31T03:07:11.320Z,11.18
2023-03-31T03:09:51.582Z,10.87
2023-03-31T03:12:26.470Z,10.74
2023-03-31T03:15:01.010Z,10.79
2023-03-31T03:17:33.655Z,10.91
2023-03-31T03:20:04.126Z,11.10
2023-03-31T03:22:31.613Z,11.32
2023-03-31T03:24:59.114Z,11.00
2023-03-31T03:27:26.618Z,10.87
2023-03-31T03:29:55.466Z,11.13
2023-03-31T03:32:23.082Z,11.08
2023-03-31T03:34:50.993Z,11.26
2023-03-31T03:37:18.540Z,11.30
2023-03-31T03:39:46.088Z,11.13
2023-03-31T03:42:13.616Z,11.01
2023-03-31T03:44:42.249Z,10.94
2023-03-31T03:47:11.136Z,10.90
2023-03-31T03:49:38.666Z,11.19
2023-03-31T03:52:06.470Z,11.13
2023-03-31T03:54:34.198Z,10.91
2023-03-31T03:57:01.731Z,10.14
2023-03-31T03:59:29.251Z,10.44
2023-03-31T04:01:56.840Z,10.35
2023-03-31T04:04:25.798Z,10.40
2023-03-31T04:06:53.306Z,9.95
2023-03-31T04:09:20.920Z,9.83
2023-03-31T04:11:48.395Z,10.13
2023-03-31T04:14:15.885Z,10.35
2023-03-31T04:16:46.781Z,10.04
2023-03-31T04:19:17.505Z,9.90
2023-03-31T04:21:46.478Z,9.72
2023-03-31T04:24:15.903Z,9.44
2023-03-31T04:26:43.679Z,9.45
2023-03-31T04:29:13.599Z,9.59
2023-03-31T04:31:43.273Z,9.94
2023-03-31T04:34:13.905Z,9.61
2023-03-31T04:36:46.996Z,9.93
2023-03-31T04:39:17.388Z,9.91
2023-03-31T04:41:45.426Z,9.71
2023-03-31T04:44:13.124Z,9.81
2023-03-31T04:46:40.912Z,9.62
2023-03-31T04:49:08.403Z,9.47
2023-03-31T04:51:35.952Z,9.49
2023-03-31T04:54:03.856Z,9.47
2023-03-31T04:56:32.783Z,9.34
2023-03-31T04:59:00.346Z,9.28
2023-03-31T05:01:27.867Z,9.29
2023-03-31T05:03:55.524Z,9.19
2023-03-31T05:06:23.080Z,9.09
2023-03-31T05:08:50.556Z,9.23
2023-03-31T05:11:18.038Z,9.59
2023-03-31T05:13:46.904Z,9.82
2023-03-31T05:16:16.223Z,10.20
2023-03-31T05:18:44.118Z,10.45
2023-03-31T05:21:13.540Z,10.33
2023-03-31T05:23:41.405Z,10.21
2023-03-31T05:26:09.184Z,10.34
2023-03-31T05:28:37.436Z,10.48
2023-03-31T05:31:07.758Z,10.70
2023-03-31T05:33:40.071Z,10.80
2023-03-31T05:36:09.648Z,10.72
2023-03-31T05:38:37.566Z,11.03
2023-03-31T05:41:06.406Z,11.01
2023-03-31T05:43:33.964Z,10.75
2023-03-31T05:46:01.685Z,10.81
2023-03-31T05:48:30.711Z,10.49
2023-03-31T05:50:58.847Z,10.53
2023-03-31T05:53:26.615Z,10.64
2023-03-31T05:55:58.551Z,10.66
2023-03-31T05:58:26.645Z,10.69
2023-03-31T06:01:02.388Z,10.60
2023-03-31T06:03:31.294Z,10.46
2023-03-31T06:05:58.794Z,10.20
2023-03-31T06:08:27.036Z,10.32
2023-03-31T06:10:54.639Z,10.64
2023-03-31T06:13:22.326Z,10.61
2023-03-31T06:15:54.789Z,10.27
2023-03-31T06:18:22.295Z,10.45
2023-03-31T06:20:51.946Z,10.33
2023-03-31T06:23:19.431Z,10.50
2023-03-31T06:25:51.410Z,10.60
2023-03-31T06:28:19.943Z,10.54
2023-03-31T06:30:47.775Z,10.47
2023-03-31T06:33:16.391Z,10.48
2023-03-31T06:35:43.940Z,10.74
2023-03-31T06:38:12.815Z,10.67
2023-03-31T06:40:40.272Z,10.91
2023-03-31T06:43:07.743Z,11.00
2023-03-31T06:45:35.305Z,11.23
2023-03-31T06:48:02.908Z,11.15
2023-03-31T06:50:30.496Z,10.94
2023-03-31T06:52:58.826Z,11.03
2023-03-31T06:55:27.684Z,11.32
2023-03-31T06:57:55.367Z,11.89
2023-03-31T07:00:25.905Z,12.01
2023-03-31T07:02:53.569Z,12.19
2023-03-31T07:05:26.737Z,12.32
2023-03-31T07:07:54.288Z,12.59
2023-03-31T07:10:22.520Z,12.71
2023-03-31T07:12:51.503Z,12.70
2023-03-31T07:15:19.386Z,12.50
2023-03-31T07:17:50.959Z,12.82
2023-03-31T07:20:19.706Z,12.85
2023-03-31T07:22:49.790Z,12.28
2023-03-31T07:25:18.585Z,12.35
2023-03-31T07:27:46.245Z,12.29
2023-03-31T07:30:17.051Z,12.56
2023-03-31T07:32:44.821Z,12.23
2023-03-31T07:35:12.615Z,12.16
2023-03-31T07:37:42.121Z,12.01
2023-03-31T07:40:12.040Z,11.82
2023-03-31T07:42:39.799Z,11.98
2023-03-31T07:45:09.159Z,12.01
2023-03-31T07:47:38.496Z,11.96
2023-03-31T07:50:07.395Z,11.53
2023-03-31T07:52:35.232Z,11.80
2023-03-31T07:55:03.547Z,11.27
2023-03-31T07:57:31.165Z,11.34
2023-03-31T07:59:58.720Z,11.14
2023-03-31T08:02:26.455Z,11.65
2023-03-31T08:04:55.365Z,11.81
2023-03-31T08:07:22.868Z,11.83
2023-03-31T08:09:50.472Z,11.42
2023-03-31T08:12:17.986Z,11.22
2023-03-31T08:14:45.525Z,11.59
2023-03-31T08:17:13.002Z,11.65
2023-03-31T08:19:40.604Z,11.30
2023-03-31T08:22:09.409Z,11.17
2023-03-31T08:24:36.901Z,11.39
2023-03-31T08:27:04.653Z,11.11
2023-03-31T08:29:32.245Z,11.36
2023-03-31T08:32:00.141Z,11.33
2023-03-31T08:34:28.360Z,11.35
2023-03-31T08:36:56.480Z,11.15
2023-03-31T08:39:25.474Z,11.07
2023-03-31T08:41:58.414Z,11.51
2023-03-31T08:44:32.789Z,11.49
2023-03-31T08:47:03.981Z,11.48
2023-03-31T08:49:40.067Z,11.49
2023-03-31T08:52:13.640Z,11.88
2023-03-31T08:54:45.578Z,12.32
2023-03-31T08:57:19.124Z,12.25
2023-03-31T08:59:47.674Z,11.98
2023-03-31T09:02:24.753Z,12.18
2023-03-31T09:05:11.445Z,11.62
2023-03-31T09:07:49.284Z,11.16
2023-03-31T09:10:36.543Z,11.15
2023-03-31T09:13:18.933Z,11.61
2023-03-31T09:15:51.647Z,11.65
2023-03-31T09:18:27.380Z,11.63
2023-03-31T09:21:03.298Z,11.92
2023-03-31T09:23:36.505Z,11.95
2023-03-31T09:26:06.393Z,11.92
2023-03-31T09:28:39.190Z,12.15
2023-03-31T09:31:14.045Z,11.75
2023-03-31T09:33:45.617Z,11.47
2023-03-31T09:36:18.188Z,12.06
2023-03-31T09:38:47.093Z,12.18
2023-03-31T09:41:18.787Z,12.48
2023-03-31T09:43:48.111Z,12.19
2023-03-31T09:46:19.746Z,12.23
2023-03-31T09:48:55.528Z,12.56
2023-03-31T09:51:30.517Z,12.34
2023-03-31T09:54:06.014Z,12.62
2023-03-31T09:56:46.372Z,12.94
2023-03-31T09:59:16.880Z,13.24
2023-03-31T10:01:46.317Z,13.19
2023-03-31T10:04:22.123Z,13.32
2023-03-31T10:06:49.998Z,13.48
2023-03-31T10:09:18.069Z,13.88
2023-03-31T10:11:59.400Z,14.75
2023-03-31T10:14:33.300Z,15.48
2023-03-31T10:17:05.238Z,16.64
2023-03-31T10:19:35.143Z,16.61
2023-03-31T10:22:05.918Z,15.36
2023-03-31T10:24:41.158Z,16.04
2023-03-31T10:27:22.316Z,15.70
2023-03-31T10:29:53.481Z,15.53
2023-03-31T10:32:25.950Z,16.42
2023-03-31T10:34:53.714Z,16.14
2023-03-31T10:37:24.479Z,16.68
2023-03-31T10:39:58.817Z,15.41
2023-03-31T10:42:28.704Z,14.79
2023-03-31T10:45:20.287Z,14.97
2023-03-31T10:47:55.595Z,15.66
2023-03-31T10:50:29.486Z,15.70
2023-03-31T10:53:03.382Z,16.48
2023-03-31T10:55:37.201Z,17.38
2023-03-31T10:58:19.130Z,17.38
2023-03-31T11:01:04.728Z,15.93
2023-03-31T11:03:46.354Z,16.20
2023-03-31T11:06:18.247Z,17.31
2023-03-31T11:08:57.772Z,17.09
2023-03-31T11:11:48.088Z,16.93
2023-03-31T11:14:29.854Z,17.44
2023-03-31T11:17:06.600Z,17.54
2023-03-31T11:19:45.891Z,17.46
2023-03-31T11:22:21.852Z,17.47
2023-03-31T11:25:11.941Z,17.06
2023-03-31T11:27:56.264Z,17.48
2023-03-31T11:30:29.438Z,17.22
2023-03-31T11:33:16.255Z,16.45
2023-03-31T11:35:59.673Z,15.71
2023-03-31T11:38:42.839Z,14.47
2023-03-31T11:41:14.311Z,14.74
2023-03-31T11:43:45.604Z,14.67
2023-03-31T11:46:19.371Z,14.70
2023-03-31T11:48:52.159Z,14.64
2023-03-31T11:51:22.685Z,15.54
2023-03-31T11:53:53.981Z,16.01
2023-03-31T11:56:24.105Z,15.54
2023-03-31T11:58:56.099Z,15.70
2023-03-31T12:01:32.150Z,16.04
2023-03-31T12:04:05.460Z,16.45
2023-03-31T12:06:36.423Z,16.81
2023-03-31T12:09:09.351Z,16.78
2023-03-31T12:11:42.497Z,16.60
2023-03-31T12:14:22.496Z,16.69
2023-03-31T12:16:55.353Z,16.14
2023-03-31T12:19:28.499Z,15.96
2023-03-31T12:22:00.145Z,16.59
2023-03-31T12:24:27.853Z,17.32
2023-03-31T12:27:04.534Z,18.07
2023-03-31T12:29:35.420Z,17.99
2023-03-31T12:32:11.058Z,17.34
2023-03-31T12:34:46.909Z,18.24
2023-03-31T12:37:37.873Z,17.22
2023-03-31T12:40:14.632Z,16.34
2023-03-31T12:43:04.988Z,16.62
2023-03-31T12:45:39.327Z,17.30
2023-03-31T12:48:22.142Z,16.51
2023-03-31T12:51:02.382Z,16.21
2023-03-31T12:53:35.883Z,16.06
2023-03-31T12:56:03.536Z,16.44
2023-03-31T12:58:43.058Z,16.87
2023-03-31T13:01:16.126Z,16.73
2023-03-31T13:04:10.151Z,16.40
2023-03-31T13:06:55.424Z,17.17
2023-03-31T13:09:57.119Z,16.16
2023-03-31T13:12:28.091Z,17.37
2023-03-31T13:15:00.091Z,17.25
2023-03-31T13:17:31.412Z,17.42
2023-03-31T13:20:26.451Z,17.72
2023-03-31T13:23:02.037Z,16.68
2023-03-31T13:25:51.639Z,16.47
2023-03-31T13:28:27.877Z,15.76
2023-03-31T13:31:02.086Z,15.75
2023-03-31T14:24:20.959Z,11.08
2023-03-31T14:26:58.171Z,12.01
2023-03-31T14:29:32.510Z,12.03
2023-03-31T14:32:08.119Z,12.33
2023-03-31T14:34:50.938Z,11.90
2023-03-31T14:37:20.961Z,11.51
2023-03-31T14:39:52.759Z,11.73
2023-03-31T14:42:25.276Z,11.43
2023-03-31T14:44:56.913Z,11.70
2023-03-31T14:47:28.485Z,11.56
2023-03-31T14:50:05.148Z,11.17
2023-03-31T14:52:35.668Z,11.07
2023-03-31T14:55:05.077Z,11.57
2023-03-31T14:57:35.832Z,11.96
2023-03-31T15:00:08.089Z,11.86
2023-03-31T15:02:38.033Z,12.00
2023-03-31T15:05:09.665Z,11.69
2023-03-31T15:07:37.667Z,11.67
2023-03-31T15:10:08.922Z,12.18
2023-03-31T15:12:38.156Z,12.61
2023-03-31T15:15:08.110Z,13.16
2023-03-31T15:17:40.461Z,13.23
2023-03-31T15:20:27.988Z,13.15
2023-03-31T15:22:56.512Z,13.07
2023-03-31T15:25:27.646Z,13.72
2023-03-31T15:27:59.330Z,13.36
2023-03-31T15:30:29.164Z,13.08
2023-03-31T15:33:11.116Z,13.23
2023-03-31T15:35:44.984Z,12.90
2023-03-31T15:38:16.248Z,12.92
2023-03-31T15:40:47.081Z,13.10
2023-03-31T15:45:51.163Z,12.28
2023-03-31T15:48:23.244Z,12.70
2023-03-31T15:50:51.736Z,12.42
2023-03-31T15:53:29.115Z,12.11
2023-03-31T15:56:00.561Z,11.80
2023-03-31T15:58:56.108Z,11.84
2023-03-31T16:01:25.119Z,11.88
2023-03-31T16:03:56.317Z,11.66
2023-03-31T16:06:39.912Z,11.52
2023-03-31T16:09:10.908Z,11.52
2023-03-31T16:11:43.196Z,11.68
2023-03-31T16:14:17.043Z,11.48
2023-03-31T16:16:51.626Z,11.85
2023-03-31T16:19:22.238Z,11.84
2023-03-31T16:21:52.648Z,11.67
2023-03-31T16:24:21.554Z,11.90
2023-03-31T16:26:50.474Z,11.91
2023-03-31T16:29:22.216Z,11.79
2023-03-31T16:31:50.436Z,11.86
2023-03-31T16:34:17.958Z,11.65
2023-03-31T16:36:45.498Z,11.72
2023-03-31T16:39:13.029Z,11.67
2023-03-31T16:41:40.647Z,11.66
2023-03-31T16:44:09.457Z,11.57
2023-03-31T16:46:36.966Z,11.33
2023-03-31T16:49:04.553Z,11.17
2023-03-31T16:51:32.027Z,11.27
2023-03-31T16:53:59.571Z,11.42
2023-03-31T16:56:27.634Z,11.44
2023-03-31T16:58:55.185Z,11.38
2023-03-31T17:01:24.147Z,11.31
2023-03-31T17:03:51.904Z,11.48
2023-03-31T17:06:19.433Z,11.48
2023-03-31T17:08:47.438Z,11.69
2023-03-31T17:11:14.984Z,11.36
2023-03-31T17:13:43.639Z,11.52
2023-03-31T17:18:44.071Z,11.18
2023-03-31T17:21:13.518Z,11.24
2023-03-31T17:23:41.425Z,11.09
2023-03-31T17:26:10.637Z,10.94
2023-03-31T17:28:38.265Z,10.94
2023-03-31T17:31:12.358Z,10.74
2023-03-31T17:33:40.018Z,10.83
2023-03-31T17:36:09.134Z,10.70
2023-03-31T17:38:36.907Z,10.57
2023-03-31T17:41:04.848Z,10.51
2023-03-31T17:43:32.508Z,10.35
2023-03-31T17:46:02.613Z,10.32
2023-03-31T17:48:30.589Z,10.51
2023-03-31T17:50:59.050Z,10.49
2023-03-31T17:53:28.415Z,10.67
2023-03-31T17:55:55.907Z,10.48
2023-03-31T17:58:23.366Z,10.68
2023-03-31T18:00:52.046Z,10.72
2023-03-31T18:03:20.064Z,10.91
2023-03-31T18:05:47.663Z,11.22
2023-03-31T18:08:15.827Z,11.02
2023-03-31T18:10:45.904Z,10.99
2023-03-31T18:13:13.657Z,10.90
2023-03-31T18:15:48.385Z,10.65
2023-03-31T18:18:16.450Z,10.62
2023-03-31T18:20:44.600Z,10.87
2023-03-31T18:23:13.035Z,10.92
2023-03-31T18:25:46.003Z,11.42
2023-03-31T18:28:14.202Z,10.84
2023-03-31T18:30:43.262Z,10.75
2023-03-31T18:33:11.094Z,10.93
2023-03-31T18:35:39.057Z,10.95
2023-03-31T18:38:07.112Z,11.21
2023-03-31T18:40:34.681Z,10.94
2023-03-31T18:43:03.556Z,10.84
2023-03-31T18:45:31.205Z,10.68
2023-03-31T18:47:58.968Z,10.60
2023-03-31T18:50:26.414Z,10.58
2023-03-31T18:52:54.357Z,10.83
2023-03-31T18:55:22.265Z,11.23
2023-03-31T18:57:50.235Z,11.00
2023-03-31T19:00:20.507Z,11.23
2023-03-31T19:02:48.176Z,10.64
2023-03-31T19:05:15.956Z,10.71
2023-03-31T19:07:43.445Z,10.57
2023-03-31T19:10:11.388Z,10.69
2023-03-31T19:12:38.836Z,10.68
2023-03-31T19:15:07.804Z,10.93
2023-03-31T19:17:36.756Z,10.79
2023-03-31T19:20:05.964Z,10.78
2023-03-31T19:22:33.485Z,10.71
2023-03-31T19:25:00.946Z,10.57
2023-03-31T19:27:28.404Z,10.68
2023-03-31T19:29:55.857Z,10.56
2023-03-31T19:32:23.470Z,10.49
2023-03-31T19:34:52.669Z,10.46
2023-03-31T19:37:20.132Z,10.52
2023-03-31T19:39:48.005Z,10.18
2023-03-31T19:42:16.017Z,10.24
2023-03-31T19:44:45.771Z,10.55
2023-03-31T19:47:13.366Z,10.46
2023-03-31T19:49:41.619Z,10.48
2023-03-31T19:52:10.511Z,9.93
2023-03-31T19:54:38.066Z,9.85
2023-03-31T19:57:05.814Z,9.83
2023-03-31T19:59:33.312Z,9.71
2023-03-31T20:02:02.451Z,9.92
2023-03-31T20:04:30.246Z,9.75
2023-03-31T20:06:57.881Z,9.54
2023-03-31T20:09:27.659Z,9.55
2023-03-31T20:11:55.187Z,9.64
2023-03-31T20:14:24.105Z,9.45
2023-03-31T20:16:52.775Z,9.39
2023-03-31T20:19:20.746Z,8.99
2023-03-31T20:21:54.046Z,8.90
2023-03-31T20:24:21.669Z,8.40
2023-03-31T20:26:50.800Z,8.38
2023-03-31T20:29:18.309Z,8.35
2023-03-31T20:31:45.982Z,8.21
2023-03-31T20:34:16.579Z,8.27
2023-03-31T20:36:48.962Z,8.04
2023-03-31T20:39:17.419Z,7.76
2023-03-31T20:41:45.205Z,7.58
2023-03-31T20:44:15.759Z,7.64
2023-03-31T20:46:44.631Z,7.80
2023-03-31T20:49:12.872Z,7.98
2023-03-31T20:51:41.691Z,8.33
2023-03-31T20:54:09.584Z,8.69
2023-03-31T20:56:39.479Z,8.59
2023-03-31T20:59:09.189Z,8.14
2023-03-31T21:01:38.602Z,8.20
2023-03-31T21:04:08.227Z,7.89
2023-03-31T21:06:39.558Z,8.00
2023-03-31T21:09:07.308Z,8.22
2023-03-31T21:11:35.102Z,8.28
2023-03-31T21:14:02.601Z,8.36
2023-03-31T21:16:30.225Z,8.25
2023-03-31T21:18:59.759Z,8.31
2023-03-31T21:21:28.861Z,8.22
2023-03-31T21:23:56.396Z,8.42
2023-03-31T21:26:24.903Z,8.35
2023-03-31T21:28:54.740Z,8.88
2023-03-31T21:31:24.002Z,8.78
2023-03-31T21:33:53.420Z,8.85
2023-03-31T21:36:23.377Z,9.08
2023-03-31T21:38:52.975Z,8.78
2023-03-31T21:41:23.969Z,8.59
2023-03-31T21:43:52.030Z,8.69
2023-03-31T21:46:21.308Z,8.53
2023-03-31T21:48:49.596Z,8.36
2023-03-31T21:51:17.212Z,8.36
2023-03-31T21:53:46.335Z,8.21
2023-03-31T21:56:13.943Z,8.41
2023-03-31T21:58:41.885Z,8.65
2023-03-31T22:01:09.508Z,8.40
2023-03-31T22:03:38.343Z,8.35
2023-03-31T22:06:07.991Z,8.56
2023-03-31T22:08:36.502Z,8.73
2023-03-31T22:11:06.944Z,8.94
2023-03-31T22:13:34.789Z,8.65
2023-03-31T22:16:02.643Z,8.48
2023-03-31T22:18:30.509Z,8.45
2023-03-31T22:20:58.779Z,8.27
2023-03-31T22:23:27.469Z,8.46
2023-03-31T22:25:55.347Z,8.32
2023-03-31T22:28:24.145Z,8.41
2023-03-31T22:30:51.970Z,8.58
2023-03-31T22:33:19.422Z,8.52
2023-03-31T22:35:46.903Z,8.12
2023-03-31T22:38:14.630Z,8.14
2023-03-31T22:40:42.114Z,7.97
2023-03-31T22:43:09.992Z,8.07
2023-03-31T22:45:38.974Z,8.29
2023-03-31T22:48:07.753Z,8.21
2023-03-31T22:50:35.458Z,8.43
2023-03-31T22:53:03.182Z,8.06
2023-03-31T22:55:30.874Z,8.12
2023-03-31T22:57:58.547Z,8.13
2023-03-31T23:00:25.992Z,8.23
2023-03-31T23:02:54.835Z,8.15
2023-03-31T23:05:24.158Z,8.25
2023-03-31T23:07:52.204Z,8.29
2023-03-31T23:10:20.155Z,8.14
2023-03-31T23:12:47.637Z,8.25
2023-03-31T23:15:15.473Z,8.34
2023-03-31T23:17:42.964Z,8.06
2023-03-31T23:20:13.294Z,8.16
2023-03-31T23:22:40.907Z,8.11
2023-03-31T23:25:08.978Z,8.14
2023-03-31T23:27:36.464Z,8.22
2023-03-31T23:30:04.047Z,7.81
2023-03-31T23:32:31.527Z,7.91
2023-03-31T23:34:58.979Z,7.67
2023-03-31T23:37:28.110Z,7.84
2023-03-31T23:39:55.615Z,7.91
2023-03-31T23:42:23.098Z,8.10
2023-03-31T23:44:50.627Z,8.00
2023-03-31T23:47:18.127Z,8.03
2023-03-31T23:49:45.876Z,8.09
2023-03-31T23:52:14.104Z,8.08
2023-03-31T23:54:42.901Z,8.27
2023-03-31T23:57:10.404Z,8.18
2023-03-31T23:59:38.037Z,8.29
